sensor_id;sensor_type;location;lat;lon;timestamp;temperature;humidity
53410;DHT22;66590;50.734;4.246;2023-10-08T00:00:08;16.30;99.90
53410;DHT22;66590;50.734;4.246;2023-10-08T00:02:41;16.30;99.90
53410;DHT22;66590;50.734;4.246;2023-10-08T00:05:10;16.30;99.90
53410;DHT22;66590;50.734;4.246;2023-10-08T00:07:43;16.30;99.90
53410;DHT22;66590;50.734;4.246;2023-10-08T00:10:10;16.30;99.90
53410;DHT22;66590;50.734;4.246;2023-10-08T00:12:43;16.30;99.90
53410;DHT22;66590;50.734;4.246;2023-10-08T00:15:10;16.20;99.90
53410;DHT22;66590;50.734;4.246;2023-10-08T00:17:37;16.20;99.90
53410;DHT22;66590;50.734;4.246;2023-10-08T00:20:12;16.20;99.90
53410;DHT22;66590;50.734;4.246;2023-10-08T00:22:39;16.10;99.90
53410;DHT22;66590;50.734;4.246;2023-10-08T00:25:06;16.10;99.90
53410;DHT22;66590;50.734;4.246;2023-10-08T00:27:39;16.20;99.90
53410;DHT22;66590;50.734;4.246;2023-10-08T00:30:12;16.20;99.90
53410;DHT22;66590;50.734;4.246;2023-10-08T00:32:39;16.20;99.90
53410;DHT22;66590;50.734;4.246;2023-10-08T00:35:14;16.20;99.90
53410;DHT22;66590;50.734;4.246;2023-10-08T00:37:40;16.20;99.90
53410;DHT22;66590;50.734;4.246;2023-10-08T00:40:14;16.10;99.90
53410;DHT22;66590;50.734;4.246;2023-10-08T00:42:41;16.10;99.90
53410;DHT22;66590;50.734;4.246;2023-10-08T00:45:14;16.10;99.90
53410;DHT22;66590;50.734;4.246;2023-10-08T00:47:41;16.00;99.90
53410;DHT22;66590;50.734;4.246;2023-10-08T00:50:08;16.00;99.90
53410;DHT22;66590;50.734;4.246;2023-10-08T00:52:42;15.90;99.90
53410;DHT22;66590;50.734;4.246;2023-10-08T00:55:10;15.80;99.90
53410;DHT22;66590;50.734;4.246;2023-10-08T00:57:43;15.70;99.90
53410;DHT22;66590;50.734;4.246;2023-10-08T01:00:10;15.60;99.90
53410;DHT22;66590;50.734;4.246;2023-10-08T01:02:44;15.60;99.90
53410;DHT22;66590;50.734;4.246;2023-10-08T01:05:17;15.60;99.90
53410;DHT22;66590;50.734;4.246;2023-10-08T01:07:46;15.60;99.90
53410;DHT22;66590;50.734;4.246;2023-10-08T01:10:19;15.60;99.90
53410;DHT22;66590;50.734;4.246;2023-10-08T01:12:46;15.70;99.90
53410;DHT22;66590;50.734;4.246;2023-10-08T01:15:19;15.60;99.90
53410;DHT22;66590;50.734;4.246;2023-10-08T01:17:46;15.60;99.90
53410;DHT22;66590;50.734;4.246;2023-10-08T01:20:19;15.50;99.90
53410;DHT22;66590;50.734;4.246;2023-10-08T01:22:48;15.60;99.90
53410;DHT22;66590;50.734;4.246;2023-10-08T01:25:21;15.50;99.90
53410;DHT22;66590;50.734;4.246;2023-10-08T01:27:48;15.50;99.90
53410;DHT22;66590;50.734;4.246;2023-10-08T01:30:21;15.50;99.90
53410;DHT22;66590;50.734;4.246;2023-10-08T01:32:48;15.40;99.90
53410;DHT22;66590;50.734;4.246;2023-10-08T01:35:21;15.40;99.90
53410;DHT22;66590;50.734;4.246;2023-10-08T01:37:50;15.50;99.90
53410;DHT22;66590;50.734;4.246;2023-10-08T01:40:23;15.40;99.90
53410;DHT22;66590;50.734;4.246;2023-10-08T01:42:56;15.40;99.90
53410;DHT22;66590;50.734;4.246;2023-10-08T01:45:23;15.40;99.90
53410;DHT22;66590;50.734;4.246;2023-10-08T01:47:56;15.40;99.90
53410;DHT22;66590;50.734;4.246;2023-10-08T01:50:29;15.40;99.90
53410;DHT22;66590;50.734;4.246;2023-10-08T01:52:58;15.40;99.90
53410;DHT22;66590;50.734;4.246;2023-10-08T01:55:32;15.30;99.90
53410;DHT22;66590;50.734;4.246;2023-10-08T01:57:58;15.30;99.90
53410;DHT22;66590;50.734;4.246;2023-10-08T02:00:32;15.30;99.90
53410;DHT22;66590;50.734;4.246;2023-10-08T02:02:59;15.30;99.90
53410;DHT22;66590;50.734;4.246;2023-10-08T02:05:26;15.30;99.90
53410;DHT22;66590;50.734;4.246;2023-10-08T02:08:01;15.40;99.90
53410;DHT22;66590;50.734;4.246;2023-10-08T02:10:34;15.40;99.90
53410;DHT22;66590;50.734;4.246;2023-10-08T02:13:07;15.40;99.90
53410;DHT22;66590;50.734;4.246;2023-10-08T02:15:43;15.30;99.90
53410;DHT22;66590;50.734;4.246;2023-10-08T02:18:16;15.30;99.90
53410;DHT22;66590;50.734;4.246;2023-10-08T02:20:43;15.50;99.90
53410;DHT22;66590;50.734;4.246;2023-10-08T02:23:18;15.50;99.90
53410;DHT22;66590;50.734;4.246;2023-10-08T02:25:45;15.40;99.90
53410;DHT22;66590;50.734;4.246;2023-10-08T02:28:11;15.40;99.90
53410;DHT22;66590;50.734;4.246;2023-10-08T02:30:44;15.40;99.90
53410;DHT22;66590;50.734;4.246;2023-10-08T02:33:17;15.20;99.90
53410;DHT22;66590;50.734;4.246;2023-10-08T02:35:45;15.10;99.90
53410;DHT22;66590;50.734;4.246;2023-10-08T02:38:20;15.10;99.90
53410;DHT22;66590;50.734;4.246;2023-10-08T02:40:46;15.00;99.90
53410;DHT22;66590;50.734;4.246;2023-10-08T02:43:14;15.00;99.90
53410;DHT22;66590;50.734;4.246;2023-10-08T02:45:41;15.00;99.90
53410;DHT22;66590;50.734;4.246;2023-10-08T02:48:08;15.00;99.90
53410;DHT22;66590;50.734;4.246;2023-10-08T02:50:35;14.90;99.90
53410;DHT22;66590;50.734;4.246;2023-10-08T02:53:01;14.90;99.90
53410;DHT22;66590;50.734;4.246;2023-10-08T02:55:30;14.90;99.90
53410;DHT22;66590;50.734;4.246;2023-10-08T02:57:56;14.90;99.90
53410;DHT22;66590;50.734;4.246;2023-10-08T03:00:23;14.80;99.90
53410;DHT22;66590;50.734;4.246;2023-10-08T03:02:50;14.70;99.90
53410;DHT22;66590;50.734;4.246;2023-10-08T03:05:17;14.80;99.90
53410;DHT22;66590;50.734;4.246;2023-10-08T03:07:44;14.80;99.90
53410;DHT22;66590;50.734;4.246;2023-10-08T03:10:11;14.80;99.90
53410;DHT22;66590;50.734;4.246;2023-10-08T03:12:39;14.70;99.90
53410;DHT22;66590;50.734;4.246;2023-10-08T03:15:06;14.60;99.90
53410;DHT22;66590;50.734;4.246;2023-10-08T03:17:33;14.60;99.90
53410;DHT22;66590;50.734;4.246;2023-10-08T03:20:00;14.60;99.90
53410;DHT22;66590;50.734;4.246;2023-10-08T03:22:26;14.70;99.90
53410;DHT22;66590;50.734;4.246;2023-10-08T03:24:53;14.80;99.90
53410;DHT22;66590;50.734;4.246;2023-10-08T03:27:20;14.80;99.90
53410;DHT22;66590;50.734;4.246;2023-10-08T03:29:48;14.80;99.90
53410;DHT22;66590;50.734;4.246;2023-10-08T03:32:15;14.70;99.90
53410;DHT22;66590;50.734;4.246;2023-10-08T03:34:45;14.70;99.90
53410;DHT22;66590;50.734;4.246;2023-10-08T03:37:13;14.80;99.90
53410;DHT22;66590;50.734;4.246;2023-10-08T03:39:40;14.70;99.90
53410;DHT22;66590;50.734;4.246;2023-10-08T03:42:07;14.70;99.90
53410;DHT22;66590;50.734;4.246;2023-10-08T03:44:34;14.70;99.90
53410;DHT22;66590;50.734;4.246;2023-10-08T03:47:02;14.80;99.90
53410;DHT22;66590;50.734;4.246;2023-10-08T03:49:29;14.80;99.90
53410;DHT22;66590;50.734;4.246;2023-10-08T03:51:56;14.80;99.90
53410;DHT22;66590;50.734;4.246;2023-10-08T03:54:23;14.70;99.90
53410;DHT22;66590;50.734;4.246;2023-10-08T03:56:50;14.70;99.90
53410;DHT22;66590;50.734;4.246;2023-10-08T03:59:17;14.60;99.90
53410;DHT22;66590;50.734;4.246;2023-10-08T04:01:44;14.60;99.90
53410;DHT22;66590;50.734;4.246;2023-10-08T04:04:12;14.70;99.90
53410;DHT22;66590;50.734;4.246;2023-10-08T04:06:40;14.70;99.90
53410;DHT22;66590;50.734;4.246;2023-10-08T04:09:06;14.60;99.90
53410;DHT22;66590;50.734;4.246;2023-10-08T04:11:33;14.70;99.90
53410;DHT22;66590;50.734;4.246;2023-10-08T04:14:00;14.60;99.90
53410;DHT22;66590;50.734;4.246;2023-10-08T04:16:27;14.50;99.90
53410;DHT22;66590;50.734;4.246;2023-10-08T04:18:53;14.50;99.90
53410;DHT22;66590;50.734;4.246;2023-10-08T04:21:23;14.50;99.90
53410;DHT22;66590;50.734;4.246;2023-10-08T04:23:50;14.60;99.90
53410;DHT22;66590;50.734;4.246;2023-10-08T04:26:16;14.60;99.90
53410;DHT22;66590;50.734;4.246;2023-10-08T04:28:43;14.50;99.90
53410;DHT22;66590;50.734;4.246;2023-10-08T04:31:10;14.40;99.90
53410;DHT22;66590;50.734;4.246;2023-10-08T04:33:37;14.50;99.90
53410;DHT22;66590;50.734;4.246;2023-10-08T04:36:04;14.50;99.90
53410;DHT22;66590;50.734;4.246;2023-10-08T04:38:32;14.40;99.90
53410;DHT22;66590;50.734;4.246;2023-10-08T04:40:59;14.40;99.90
53410;DHT22;66590;50.734;4.246;2023-10-08T04:43:25;14.30;99.90
53410;DHT22;66590;50.734;4.246;2023-10-08T04:45:52;14.30;99.90
53410;DHT22;66590;50.734;4.246;2023-10-08T04:48:19;14.40;99.90
53410;DHT22;66590;50.734;4.246;2023-10-08T04:50:47;14.40;99.90
53410;DHT22;66590;50.734;4.246;2023-10-08T04:53:14;14.50;99.90
53410;DHT22;66590;50.734;4.246;2023-10-08T04:55:42;14.60;99.90
53410;DHT22;66590;50.734;4.246;2023-10-08T04:58:08;14.60;99.90
53410;DHT22;66590;50.734;4.246;2023-10-08T05:00:35;14.50;99.90
53410;DHT22;66590;50.734;4.246;2023-10-08T05:03:02;14.50;99.90
53410;DHT22;66590;50.734;4.246;2023-10-08T05:05:29;14.50;99.90
53410;DHT22;66590;50.734;4.246;2023-10-08T05:07:56;14.60;99.90
53410;DHT22;66590;50.734;4.246;2023-10-08T05:10:23;14.60;99.90
53410;DHT22;66590;50.734;4.246;2023-10-08T05:12:51;14.60;99.90
53410;DHT22;66590;50.734;4.246;2023-10-08T05:15:18;14.70;99.90
53410;DHT22;66590;50.734;4.246;2023-10-08T05:17:45;14.70;99.90
53410;DHT22;66590;50.734;4.246;2023-10-08T05:20:13;14.70;99.90
53410;DHT22;66590;50.734;4.246;2023-10-08T05:22:39;14.70;99.90
53410;DHT22;66590;50.734;4.246;2023-10-08T05:25:06;14.70;99.90
53410;DHT22;66590;50.734;4.246;2023-10-08T05:27:34;14.70;99.90
53410;DHT22;66590;50.734;4.246;2023-10-08T05:30:03;14.60;99.90
53410;DHT22;66590;50.734;4.246;2023-10-08T05:32:30;14.60;99.90
53410;DHT22;66590;50.734;4.246;2023-10-08T05:34:56;14.60;99.90
53410;DHT22;66590;50.734;4.246;2023-10-08T05:37:23;14.50;99.90
53410;DHT22;66590;50.734;4.246;2023-10-08T05:39:50;14.50;99.90
53410;DHT22;66590;50.734;4.246;2023-10-08T05:42:17;14.60;99.90
53410;DHT22;66590;50.734;4.246;2023-10-08T05:44:44;14.70;99.90
53410;DHT22;66590;50.734;4.246;2023-10-08T05:47:13;14.70;99.90
53410;DHT22;66590;50.734;4.246;2023-10-08T05:49:40;14.60;99.90
53410;DHT22;66590;50.734;4.246;2023-10-08T05:52:06;14.60;99.90
53410;DHT22;66590;50.734;4.246;2023-10-08T05:54:33;14.50;99.90
53410;DHT22;66590;50.734;4.246;2023-10-08T05:57:00;14.40;99.90
53410;DHT22;66590;50.734;4.246;2023-10-08T05:59:28;14.50;99.90
53410;DHT22;66590;50.734;4.246;2023-10-08T06:01:55;14.40;99.90
53410;DHT22;66590;50.734;4.246;2023-10-08T06:04:23;14.50;99.90
53410;DHT22;66590;50.734;4.246;2023-10-08T06:06:50;14.60;99.90
53410;DHT22;66590;50.734;4.246;2023-10-08T06:09:17;14.60;99.90
53410;DHT22;66590;50.734;4.246;2023-10-08T06:11:44;14.50;99.90
53410;DHT22;66590;50.734;4.246;2023-10-08T06:14:11;14.50;99.90
53410;DHT22;66590;50.734;4.246;2023-10-08T06:16:39;14.60;99.90
53410;DHT22;66590;50.734;4.246;2023-10-08T06:19:06;14.70;99.90
53410;DHT22;66590;50.734;4.246;2023-10-08T06:21:34;14.80;99.90
53410;DHT22;66590;50.734;4.246;2023-10-08T06:24:01;15.00;99.90
53410;DHT22;66590;50.734;4.246;2023-10-08T06:26:27;15.10;99.90
53410;DHT22;66590;50.734;4.246;2023-10-08T06:28:54;15.00;99.90
53410;DHT22;66590;50.734;4.246;2023-10-08T06:31:21;15.00;99.90
53410;DHT22;66590;50.734;4.246;2023-10-08T06:33:48;15.10;99.90
53410;DHT22;66590;50.734;4.246;2023-10-08T06:36:15;15.20;99.90
53410;DHT22;66590;50.734;4.246;2023-10-08T06:38:43;15.10;99.90
53410;DHT22;66590;50.734;4.246;2023-10-08T06:41:11;15.10;99.90
53410;DHT22;66590;50.734;4.246;2023-10-08T06:43:39;15.10;99.90
53410;DHT22;66590;50.734;4.246;2023-10-08T06:46:06;15.10;99.90
53410;DHT22;66590;50.734;4.246;2023-10-08T06:48:32;15.10;99.90
53410;DHT22;66590;50.734;4.246;2023-10-08T06:51:00;15.10;99.90
53410;DHT22;66590;50.734;4.246;2023-10-08T06:53:27;15.10;99.90
53410;DHT22;66590;50.734;4.246;2023-10-08T06:55:55;15.10;99.90
53410;DHT22;66590;50.734;4.246;2023-10-08T06:58:22;15.20;99.90
53410;DHT22;66590;50.734;4.246;2023-10-08T07:00:49;15.20;99.90
53410;DHT22;66590;50.734;4.246;2023-10-08T07:03:16;15.20;99.90
53410;DHT22;66590;50.734;4.246;2023-10-08T07:05:44;15.30;99.90
53410;DHT22;66590;50.734;4.246;2023-10-08T07:08:11;15.30;99.90
53410;DHT22;66590;50.734;4.246;2023-10-08T07:10:39;15.50;99.90
53410;DHT22;66590;50.734;4.246;2023-10-08T07:13:07;15.70;99.90
53410;DHT22;66590;50.734;4.246;2023-10-08T07:15:34;15.70;99.90
53410;DHT22;66590;50.734;4.246;2023-10-08T07:18:01;15.70;99.90
53410;DHT22;66590;50.734;4.246;2023-10-08T07:20:28;15.80;99.90
53410;DHT22;66590;50.734;4.246;2023-10-08T07:22:55;15.80;99.90
53410;DHT22;66590;50.734;4.246;2023-10-08T07:25:22;15.90;99.90
53410;DHT22;66590;50.734;4.246;2023-10-08T07:27:49;15.90;99.90
53410;DHT22;66590;50.734;4.246;2023-10-08T07:30:17;15.80;99.90
53410;DHT22;66590;50.734;4.246;2023-10-08T07:32:44;15.80;99.90
53410;DHT22;66590;50.734;4.246;2023-10-08T07:35:11;15.90;99.90
53410;DHT22;66590;50.734;4.246;2023-10-08T07:37:37;15.90;99.90
53410;DHT22;66590;50.734;4.246;2023-10-08T07:40:05;16.10;99.90
53410;DHT22;66590;50.734;4.246;2023-10-08T07:42:32;16.10;99.90
53410;DHT22;66590;50.734;4.246;2023-10-08T07:44:59;16.30;99.90
53410;DHT22;66590;50.734;4.246;2023-10-08T07:47:27;16.30;99.90
53410;DHT22;66590;50.734;4.246;2023-10-08T07:49:54;16.50;99.90
53410;DHT22;66590;50.734;4.246;2023-10-08T07:52:21;16.60;99.90
53410;DHT22;66590;50.734;4.246;2023-10-08T07:54:48;16.70;99.90
53410;DHT22;66590;50.734;4.246;2023-10-08T07:57:15;16.80;99.90
53410;DHT22;66590;50.734;4.246;2023-10-08T07:59:42;16.90;99.90
53410;DHT22;66590;50.734;4.246;2023-10-08T08:02:09;17.00;99.90
53410;DHT22;66590;50.734;4.246;2023-10-08T08:04:38;17.00;99.90
53410;DHT22;66590;50.734;4.246;2023-10-08T08:07:05;17.00;99.90
53410;DHT22;66590;50.734;4.246;2023-10-08T08:09:32;17.20;99.90
53410;DHT22;66590;50.734;4.246;2023-10-08T08:11:58;17.30;99.90
53410;DHT22;66590;50.734;4.246;2023-10-08T08:14:25;17.30;99.90
53410;DHT22;66590;50.734;4.246;2023-10-08T08:16:52;17.30;99.90
53410;DHT22;66590;50.734;4.246;2023-10-08T08:19:19;17.40;99.90
53410;DHT22;66590;50.734;4.246;2023-10-08T08:21:47;17.40;99.90
53410;DHT22;66590;50.734;4.246;2023-10-08T08:24:14;17.60;99.90
53410;DHT22;66590;50.734;4.246;2023-10-08T08:26:41;17.70;99.90
53410;DHT22;66590;50.734;4.246;2023-10-08T08:29:07;17.80;99.90
53410;DHT22;66590;50.734;4.246;2023-10-08T08:31:34;17.80;99.90
53410;DHT22;66590;50.734;4.246;2023-10-08T08:34:02;17.60;99.90
53410;DHT22;66590;50.734;4.246;2023-10-08T08:36:29;17.70;99.90
53410;DHT22;66590;50.734;4.246;2023-10-08T08:38:58;18.00;99.90
53410;DHT22;66590;50.734;4.246;2023-10-08T08:41:25;17.90;99.90
53410;DHT22;66590;50.734;4.246;2023-10-08T08:43:52;18.00;99.90
53410;DHT22;66590;50.734;4.246;2023-10-08T08:46:19;18.00;99.90
53410;DHT22;66590;50.734;4.246;2023-10-08T08:48:45;18.10;99.90
53410;DHT22;66590;50.734;4.246;2023-10-08T08:51:13;18.10;99.90
53410;DHT22;66590;50.734;4.246;2023-10-08T08:53:40;18.30;99.90
53410;DHT22;66590;50.734;4.246;2023-10-08T08:56:09;18.40;99.90
53410;DHT22;66590;50.734;4.246;2023-10-08T08:58:36;18.60;99.90
53410;DHT22;66590;50.734;4.246;2023-10-08T09:01:03;18.50;99.90
53410;DHT22;66590;50.734;4.246;2023-10-08T09:03:31;18.50;99.90
53410;DHT22;66590;50.734;4.246;2023-10-08T09:05:58;18.90;99.90
53410;DHT22;66590;50.734;4.246;2023-10-08T09:08:27;18.90;99.90
53410;DHT22;66590;50.734;4.246;2023-10-08T09:10:58;19.00;99.90
53410;DHT22;66590;50.734;4.246;2023-10-08T09:13:26;18.90;99.90
53410;DHT22;66590;50.734;4.246;2023-10-08T09:15:56;19.50;99.90
53410;DHT22;66590;50.734;4.246;2023-10-08T09:18:23;19.60;99.90
53410;DHT22;66590;50.734;4.246;2023-10-08T09:20:51;19.70;99.90
53410;DHT22;66590;50.734;4.246;2023-10-08T09:23:18;19.80;99.90
53410;DHT22;66590;50.734;4.246;2023-10-08T09:25:45;19.90;99.90
53410;DHT22;66590;50.734;4.246;2023-10-08T09:28:12;19.80;99.90
53410;DHT22;66590;50.734;4.246;2023-10-08T09:30:40;19.90;99.90
53410;DHT22;66590;50.734;4.246;2023-10-08T09:33:08;20.00;99.90
53410;DHT22;66590;50.734;4.246;2023-10-08T09:35:37;20.20;99.90
53410;DHT22;66590;50.734;4.246;2023-10-08T09:38:05;20.60;99.90
53410;DHT22;66590;50.734;4.246;2023-10-08T09:40:32;20.90;99.90
53410;DHT22;66590;50.734;4.246;2023-10-08T09:42:59;20.60;99.90
53410;DHT22;66590;50.734;4.246;2023-10-08T09:45:26;20.30;99.90
53410;DHT22;66590;50.734;4.246;2023-10-08T09:47:54;20.60;99.90
53410;DHT22;66590;50.734;4.246;2023-10-08T09:50:24;20.50;99.90
53410;DHT22;66590;50.734;4.246;2023-10-08T09:52:55;20.70;99.90
53410;DHT22;66590;50.734;4.246;2023-10-08T09:55:22;20.80;99.90
53410;DHT22;66590;50.734;4.246;2023-10-08T09:57:49;20.90;99.90
53410;DHT22;66590;50.734;4.246;2023-10-08T10:00:16;21.10;99.90
53410;DHT22;66590;50.734;4.246;2023-10-08T10:02:44;21.00;99.90
53410;DHT22;66590;50.734;4.246;2023-10-08T10:05:13;20.90;99.90
53410;DHT22;66590;50.734;4.246;2023-10-08T10:07:46;21.20;99.90
53410;DHT22;66590;50.734;4.246;2023-10-08T10:10:25;21.00;99.90
53410;DHT22;66590;50.734;4.246;2023-10-08T10:12:52;21.10;99.90
53410;DHT22;66590;50.734;4.246;2023-10-08T10:15:19;21.00;99.90
53410;DHT22;66590;50.734;4.246;2023-10-08T10:17:58;21.20;99.90
53410;DHT22;66590;50.734;4.246;2023-10-08T10:20:27;20.90;99.90
53410;DHT22;66590;50.734;4.246;2023-10-08T10:23:10;20.90;99.90
53410;DHT22;66590;50.734;4.246;2023-10-08T10:25:57;20.90;99.90
53410;DHT22;66590;50.734;4.246;2023-10-08T10:28:23;21.20;99.90
53410;DHT22;66590;50.734;4.246;2023-10-08T10:30:50;21.50;99.90
53410;DHT22;66590;50.734;4.246;2023-10-08T10:33:17;21.70;99.90
53410;DHT22;66590;50.734;4.246;2023-10-08T10:35:50;22.10;99.90
53410;DHT22;66590;50.734;4.246;2023-10-08T10:38:18;22.10;99.90
53410;DHT22;66590;50.734;4.246;2023-10-08T10:40:47;22.50;99.90
53410;DHT22;66590;50.734;4.246;2023-10-08T10:43:14;22.40;99.90
53410;DHT22;66590;50.734;4.246;2023-10-08T10:45:41;22.40;99.90
53410;DHT22;66590;50.734;4.246;2023-10-08T10:48:08;22.00;99.90
53410;DHT22;66590;50.734;4.246;2023-10-08T10:50:35;22.00;99.90
53410;DHT22;66590;50.734;4.246;2023-10-08T10:53:04;22.20;99.90
53410;DHT22;66590;50.734;4.246;2023-10-08T10:55:31;21.90;99.90
53410;DHT22;66590;50.734;4.246;2023-10-08T10:57:59;22.20;99.90
53410;DHT22;66590;50.734;4.246;2023-10-08T11:00:32;22.30;99.90
53410;DHT22;66590;50.734;4.246;2023-10-08T11:02:59;22.20;99.90
53410;DHT22;66590;50.734;4.246;2023-10-08T11:05:27;22.10;99.90
53410;DHT22;66590;50.734;4.246;2023-10-08T11:07:54;22.10;99.90
53410;DHT22;66590;50.734;4.246;2023-10-08T11:10:22;22.10;99.90
53410;DHT22;66590;50.734;4.246;2023-10-08T11:12:49;21.90;99.90
53410;DHT22;66590;50.734;4.246;2023-10-08T11:15:16;21.80;99.90
53410;DHT22;66590;50.734;4.246;2023-10-08T11:17:43;21.80;99.90
53410;DHT22;66590;50.734;4.246;2023-10-08T11:20:23;22.00;99.90
53410;DHT22;66590;50.734;4.246;2023-10-08T11:22:50;22.50;99.90
53410;DHT22;66590;50.734;4.246;2023-10-08T11:25:20;22.80;99.90
53410;DHT22;66590;50.734;4.246;2023-10-08T11:27:48;23.00;99.90
53410;DHT22;66590;50.734;4.246;2023-10-08T11:30:17;23.00;99.90
53410;DHT22;66590;50.734;4.246;2023-10-08T11:32:44;23.10;99.90
53410;DHT22;66590;50.734;4.246;2023-10-08T11:35:14;23.20;99.90
53410;DHT22;66590;50.734;4.246;2023-10-08T11:37:44;23.20;99.90
53410;DHT22;66590;50.734;4.246;2023-10-08T11:40:11;23.60;99.90
53410;DHT22;66590;50.734;4.246;2023-10-08T11:42:49;23.60;99.90
53410;DHT22;66590;50.734;4.246;2023-10-08T11:45:16;23.60;99.90
53410;DHT22;66590;50.734;4.246;2023-10-08T11:47:43;23.70;99.90
53410;DHT22;66590;50.734;4.246;2023-10-08T11:50:10;23.60;99.90
53410;DHT22;66590;50.734;4.246;2023-10-08T11:52:37;23.70;99.90
53410;DHT22;66590;50.734;4.246;2023-10-08T11:55:04;23.70;99.90
53410;DHT22;66590;50.734;4.246;2023-10-08T11:57:31;23.70;99.90
53410;DHT22;66590;50.734;4.246;2023-10-08T11:59:59;23.80;99.90
53410;DHT22;66590;50.734;4.246;2023-10-08T12:02:26;24.00;99.90
53410;DHT22;66590;50.734;4.246;2023-10-08T12:04:53;23.70;99.90
53410;DHT22;66590;50.734;4.246;2023-10-08T12:07:20;23.20;99.90
53410;DHT22;66590;50.734;4.246;2023-10-08T12:09:47;23.10;99.90
53410;DHT22;66590;50.734;4.246;2023-10-08T12:12:14;23.10;99.90
53410;DHT22;66590;50.734;4.246;2023-10-08T12:14:41;23.50;99.90
53410;DHT22;66590;50.734;4.246;2023-10-08T12:17:11;23.50;99.90
53410;DHT22;66590;50.734;4.246;2023-10-08T12:19:38;23.20;99.90
53410;DHT22;66590;50.734;4.246;2023-10-08T12:22:05;23.10;99.90
53410;DHT22;66590;50.734;4.246;2023-10-08T12:24:32;23.30;99.90
53410;DHT22;66590;50.734;4.246;2023-10-08T12:26:59;23.30;99.90
53410;DHT22;66590;50.734;4.246;2023-10-08T12:29:26;23.00;99.90
53410;DHT22;66590;50.734;4.246;2023-10-08T12:31:52;22.90;99.90
53410;DHT22;66590;50.734;4.246;2023-10-08T12:34:21;23.00;99.90
53410;DHT22;66590;50.734;4.246;2023-10-08T12:36:47;23.20;99.90
53410;DHT22;66590;50.734;4.246;2023-10-08T12:39:14;23.20;99.90
53410;DHT22;66590;50.734;4.246;2023-10-08T12:41:42;23.60;99.90
53410;DHT22;66590;50.734;4.246;2023-10-08T12:44:08;23.60;99.90
53410;DHT22;66590;50.734;4.246;2023-10-08T12:46:35;23.70;99.90
53410;DHT22;66590;50.734;4.246;2023-10-08T12:49:02;23.80;99.90
53410;DHT22;66590;50.734;4.246;2023-10-08T12:51:30;23.80;99.90
53410;DHT22;66590;50.734;4.246;2023-10-08T12:53:57;23.60;99.90
53410;DHT22;66590;50.734;4.246;2023-10-08T12:56:24;23.60;99.90
53410;DHT22;66590;50.734;4.246;2023-10-08T12:58:51;23.50;99.90
53410;DHT22;66590;50.734;4.246;2023-10-08T13:01:18;23.50;99.90
53410;DHT22;66590;50.734;4.246;2023-10-08T13:03:45;23.60;99.90
53410;DHT22;66590;50.734;4.246;2023-10-08T13:06:13;23.50;99.90
53410;DHT22;66590;50.734;4.246;2023-10-08T13:08:41;23.30;99.90
53410;DHT22;66590;50.734;4.246;2023-10-08T13:11:08;23.10;99.90
53410;DHT22;66590;50.734;4.246;2023-10-08T13:13:35;23.20;99.90
53410;DHT22;66590;50.734;4.246;2023-10-08T13:16:02;23.30;99.90
53410;DHT22;66590;50.734;4.246;2023-10-08T13:18:31;23.60;99.90
53410;DHT22;66590;50.734;4.246;2023-10-08T13:20:58;23.90;99.90
53410;DHT22;66590;50.734;4.246;2023-10-08T13:23:25;23.90;99.90
53410;DHT22;66590;50.734;4.246;2023-10-08T13:25:53;24.20;99.90
53410;DHT22;66590;50.734;4.246;2023-10-08T13:28:20;24.10;99.90
53410;DHT22;66590;50.734;4.246;2023-10-08T13:30:47;23.80;99.90
53410;DHT22;66590;50.734;4.246;2023-10-08T13:33:14;23.90;99.90
53410;DHT22;66590;50.734;4.246;2023-10-08T13:35:41;23.80;99.90
53410;DHT22;66590;50.734;4.246;2023-10-08T13:38:08;23.80;99.90
53410;DHT22;66590;50.734;4.246;2023-10-08T13:40:35;23.80;99.90
53410;DHT22;66590;50.734;4.246;2023-10-08T13:43:03;23.80;99.90
53410;DHT22;66590;50.734;4.246;2023-10-08T13:45:30;23.90;99.90
53410;DHT22;66590;50.734;4.246;2023-10-08T13:47:57;23.90;99.90
53410;DHT22;66590;50.734;4.246;2023-10-08T13:50:24;23.70;99.90
53410;DHT22;66590;50.734;4.246;2023-10-08T13:52:51;23.70;99.90
53410;DHT22;66590;50.734;4.246;2023-10-08T13:55:17;23.70;99.90
53410;DHT22;66590;50.734;4.246;2023-10-08T13:57:44;23.70;99.90
53410;DHT22;66590;50.734;4.246;2023-10-08T14:00:13;23.90;99.90
53410;DHT22;66590;50.734;4.246;2023-10-08T14:02:40;23.80;99.90
53410;DHT22;66590;50.734;4.246;2023-10-08T14:05:07;23.60;99.90
53410;DHT22;66590;50.734;4.246;2023-10-08T14:07:34;23.80;99.90
53410;DHT22;66590;50.734;4.246;2023-10-08T14:10:01;24.00;99.90
53410;DHT22;66590;50.734;4.246;2023-10-08T14:12:28;24.00;99.90
53410;DHT22;66590;50.734;4.246;2023-10-08T14:14:55;23.80;99.90
53410;DHT22;66590;50.734;4.246;2023-10-08T14:17:23;23.60;99.90
53410;DHT22;66590;50.734;4.246;2023-10-08T14:19:50;23.70;99.90
53410;DHT22;66590;50.734;4.246;2023-10-08T14:22:17;23.70;99.90
53410;DHT22;66590;50.734;4.246;2023-10-08T14:24:43;23.60;99.90
53410;DHT22;66590;50.734;4.246;2023-10-08T14:27:10;23.60;99.90
53410;DHT22;66590;50.734;4.246;2023-10-08T14:29:38;23.70;99.90
53410;DHT22;66590;50.734;4.246;2023-10-08T14:32:05;23.90;99.90
53410;DHT22;66590;50.734;4.246;2023-10-08T14:34:33;23.90;99.90
53410;DHT22;66590;50.734;4.246;2023-10-08T14:37:00;23.90;99.90
53410;DHT22;66590;50.734;4.246;2023-10-08T14:39:27;23.80;99.90
53410;DHT22;66590;50.734;4.246;2023-10-08T14:41:53;23.70;99.90
53410;DHT22;66590;50.734;4.246;2023-10-08T14:44:20;23.60;99.90
53410;DHT22;66590;50.734;4.246;2023-10-08T14:46:47;23.70;99.90
53410;DHT22;66590;50.734;4.246;2023-10-08T14:49:14;23.70;99.90
53410;DHT22;66590;50.734;4.246;2023-10-08T14:51:43;23.70;99.90
53410;DHT22;66590;50.734;4.246;2023-10-08T14:54:10;23.80;99.90
53410;DHT22;66590;50.734;4.246;2023-10-08T14:56:36;24.00;99.90
53410;DHT22;66590;50.734;4.246;2023-10-08T14:59:03;24.00;99.90
53410;DHT22;66590;50.734;4.246;2023-10-08T15:01:30;24.00;99.90
53410;DHT22;66590;50.734;4.246;2023-10-08T15:03:57;23.70;99.90
53410;DHT22;66590;50.734;4.246;2023-10-08T15:06:24;23.80;99.90
53410;DHT22;66590;50.734;4.246;2023-10-08T15:08:53;23.60;99.90
53410;DHT22;66590;50.734;4.246;2023-10-08T15:11:19;23.60;99.90
53410;DHT22;66590;50.734;4.246;2023-10-08T15:13:46;23.70;99.90
53410;DHT22;66590;50.734;4.246;2023-10-08T15:16:13;23.90;99.90
53410;DHT22;66590;50.734;4.246;2023-10-08T15:18:40;23.90;99.90
53410;DHT22;66590;50.734;4.246;2023-10-08T15:21:08;23.90;99.90
53410;DHT22;66590;50.734;4.246;2023-10-08T15:23:35;23.80;99.90
53410;DHT22;66590;50.734;4.246;2023-10-08T15:26:05;23.60;99.90
53410;DHT22;66590;50.734;4.246;2023-10-08T15:28:32;23.40;99.90
53410;DHT22;66590;50.734;4.246;2023-10-08T15:30:59;23.40;99.90
53410;DHT22;66590;50.734;4.246;2023-10-08T15:33:26;23.40;99.90